Time;durP1;ratioP1;P1;durP2;ratioP2;P2;SDS_P1;SDS_P2;PMS_P1;PMS_P2;Temp;Humidity;BMP_temperature;BMP_pressure;BME280_temperature;BME280_humidity;BME280_pressure;Samples;Min_cycle;Max_cycle;Signal;HPM_P1;HPM_P2
2023/12/14 00:01:10;;;;;;;1.33;1.23;;;2.80;99.90;4.70;95481.00;;;;5052361;28;20213;-63
2023/12/14 00:03:59;;;;;;;1.00;1.00;;;2.80;99.90;4.60;95482.00;;;;5050780;28;20204;-62
2023/12/14 00:06:47;;;;;;;0.80;0.80;;;2.80;99.90;4.90;95486.00;;;;5050683;28;20243;-62
2023/12/14 00:09:38;;;;;;;2.33;2.23;;;2.90;99.90;5.30;95493.00;;;;5051534;28;20205;-63
2023/12/14 00:12:26;;;;;;;1.43;1.37;;;3.00;99.90;5.50;95500.00;;;;5049351;28;20200;-63
2023/12/14 00:15:15;;;;;;;0.90;0.90;;;3.10;99.90;5.50;95496.00;;;;5047813;28;20239;-64
2023/12/14 00:18:05;;;;;;;1.20;1.10;;;3.10;99.90;5.30;95498.00;;;;5045137;28;20205;-63
2023/12/14 00:20:54;;;;;;;1.00;1.00;;;3.20;99.90;5.10;95496.00;;;;5051053;28;20220;-64
2023/12/14 00:23:43;;;;;;;0.83;0.83;;;3.10;99.90;5.30;95505.00;;;;5050408;28;20217;-64
2023/12/14 00:26:33;;;;;;;1.40;1.30;;;3.10;99.90;5.60;95510.00;;;;5050044;28;20601;-64
2023/12/14 00:29:22;;;;;;;1.37;1.27;;;3.20;99.90;5.40;95501.00;;;;5062482;22;20484;-69
2023/12/14 00:32:11;;;;;;;3.67;2.00;;;3.00;99.90;5.00;95498.00;;;;5024504;28;20395;-69
2023/12/14 00:35:00;;;;;;;1.63;1.30;;;3.20;99.90;5.50;95514.00;;;;5032400;28;20699;-68
2023/12/14 00:37:49;;;;;;;1.40;1.30;;;3.20;99.90;5.50;95513.00;;;;5025164;28;20232;-70
2023/12/14 00:40:38;;;;;;;1.87;1.77;;;3.20;99.90;5.40;95522.00;;;;5012012;28;20201;-70
2023/12/14 00:43:28;;;;;;;1.77;1.60;;;3.20;99.90;5.30;95524.00;;;;5011297;28;20202;-69
2023/12/14 00:46:17;;;;;;;2.30;2.10;;;3.20;99.90;5.00;95523.00;;;;5010615;28;20202;-69
2023/12/14 00:49:06;;;;;;;1.37;1.27;;;3.20;99.90;5.00;95534.00;;;;5006600;28;20234;-70
2023/12/14 00:51:55;;;;;;;1.20;1.10;;;3.10;99.90;5.10;95538.00;;;;5009061;28;20203;-70
2023/12/14 00:54:43;;;;;;;1.40;1.30;;;3.00;99.90;4.90;95535.00;;;;5002830;28;20233;-70
2023/12/14 00:57:32;;;;;;;2.07;1.93;;;3.00;99.90;5.00;95535.00;;;;5006771;28;20225;-70
2023/12/14 01:00:23;;;;;;;1.23;1.13;;;2.90;99.90;5.00;95541.00;;;;5007390;28;20209;-69
2023/12/14 01:03:11;;;;;;;1.30;1.20;;;2.90;99.90;5.10;95541.00;;;;4998002;28;20209;-69
2023/12/14 01:06:00;;;;;;;1.40;1.30;;;2.90;99.90;5.30;95538.00;;;;5011050;28;20673;-70
2023/12/14 01:08:49;;;;;;;1.23;1.13;;;2.90;99.90;5.20;95543.00;;;;5007457;28;20238;-69
2023/12/14 01:11:38;;;;;;;1.90;1.80;;;3.00;99.90;5.20;95544.00;;;;5012010;28;20213;-70
2023/12/14 01:14:27;;;;;;;1.27;1.17;;;3.00;99.90;5.10;95544.00;;;;5007877;28;20229;-69
2023/12/14 01:17:18;;;;;;;1.10;1.00;;;3.00;99.90;5.20;95541.00;;;;5003915;28;20206;-70
2023/12/14 01:20:08;;;;;;;0.93;0.90;;;3.00;99.90;5.20;95542.00;;;;5011382;28;20237;-69
2023/12/14 01:22:57;;;;;;;1.40;1.30;;;3.00;99.90;5.30;95544.00;;;;5004450;28;20737;-70
2023/12/14 01:25:46;;;;;;;1.30;1.20;;;3.10;99.90;5.40;95539.00;;;;5009281;28;20218;-70
2023/12/14 01:28:35;;;;;;;2.10;1.90;;;3.10;99.90;5.30;95546.00;;;;5006484;28;20237;-70
2023/12/14 01:31:24;;;;;;;1.70;1.60;;;3.10;99.90;4.90;95551.00;;;;5005296;28;20202;-69
2023/12/14 01:34:15;;;;;;;1.30;1.20;;;3.00;99.90;4.80;95549.00;;;;5004802;28;20675;-71
2023/12/14 01:37:04;;;;;;;1.63;1.43;;;3.00;99.90;4.90;95555.00;;;;5009214;28;20209;-69
2023/12/14 01:39:53;;;;;;;1.47;1.37;;;2.90;99.90;4.30;95552.00;;;;5009671;28;20225;-70
2023/12/14 01:42:42;;;;;;;2.43;2.23;;;2.80;99.90;4.60;95557.00;;;;5010672;28;20687;-70
2023/12/14 01:45:31;;;;;;;2.53;2.33;;;2.80;99.90;5.10;95575.00;;;;5008142;28;20589;-71
2023/12/14 01:48:20;;;;;;;1.10;1.00;;;2.80;99.90;5.20;95578.00;;;;5010459;28;20238;-70
2023/12/14 01:51:10;;;;;;;1.27;1.17;;;2.90;99.90;5.20;95580.00;;;;5014878;28;20206;-70
2023/12/14 01:53:59;;;;;;;1.20;1.10;;;2.90;99.90;5.40;95579.00;;;;5007621;28;20198;-70
2023/12/14 01:56:48;;;;;;;1.20;1.10;;;3.00;99.90;5.40;95579.00;;;;5009791;28;20589;-70
2023/12/14 01:59:36;;;;;;;2.23;2.03;;;3.00;99.90;5.40;95591.00;;;;5009210;28;20222;-70
2023/12/14 02:02:25;;;;;;;1.40;1.30;;;3.00;99.90;5.40;95591.00;;;;5009266;28;20214;-70
2023/12/14 02:05:14;;;;;;;1.63;1.53;;;3.00;99.90;5.20;95596.00;;;;5008115;28;20229;-69
2023/12/14 02:08:05;;;;;;;1.20;1.10;;;3.00;99.90;5.30;95591.00;;;;5003670;28;20727;-70
2023/12/14 02:10:54;;;;;;;1.10;1.00;;;3.00;99.90;5.20;95600.00;;;;5002890;28;20317;-70
2023/12/14 02:13:43;;;;;;;2.20;2.00;;;3.00;99.90;5.10;95604.00;;;;5009467;28;20591;-71
2023/12/14 02:16:32;;;;;;;2.13;1.93;;;3.00;99.90;4.90;95604.00;;;;5010459;28;20202;-69
2023/12/14 02:19:21;;;;;;;0.90;0.90;;;3.00;99.90;4.80;95599.00;;;;5009139;28;20226;-71
2023/12/14 02:22:10;;;;;;;1.40;1.30;;;2.90;99.90;4.80;95605.00;;;;5010725;28;20213;-70
2023/12/14 02:25:00;;;;;;;1.33;1.20;;;2.90;99.90;4.90;95606.00;;;;5010045;28;20206;-70
2023/12/14 02:27:50;;;;;;;1.50;1.40;;;2.90;99.90;4.90;95614.00;;;;5009422;28;20583;-70
2023/12/14 02:30:39;;;;;;;1.83;1.73;;;2.80;99.90;4.70;95621.00;;;;5008861;28;20217;-71
2023/12/14 02:33:28;;;;;;;1.90;1.70;;;2.80;99.90;4.60;95619.00;;;;5009104;28;20198;-70
2023/12/14 02:36:17;;;;;;;1.87;1.67;;;2.70;99.90;4.20;95618.00;;;;4999372;28;20225;-70
2023/12/14 02:39:05;;;;;;;1.40;1.30;;;2.70;99.90;4.50;95618.00;;;;5009561;28;20703;-70
2023/12/14 02:41:56;;;;;;;1.60;1.50;;;2.70;99.90;5.00;95620.00;;;;5001396;28;20210;-69
2023/12/14 02:44:44;;;;;;;2.07;1.93;;;2.70;99.90;5.00;95618.00;;;;5008708;28;20210;-69
2023/12/14 02:47:33;;;;;;;2.20;2.00;;;2.70;99.90;4.60;95621.00;;;;5008906;28;20210;-71
2023/12/14 02:50:22;;;;;;;1.20;1.10;;;2.70;99.90;5.00;95616.00;;;;5008808;28;20225;-70
2023/12/14 02:53:11;;;;;;;1.30;1.20;;;2.80;99.90;5.00;95617.00;;;;5004303;28;20214;-70
2023/12/14 02:56:03;;;;;;;1.23;1.13;;;2.80;99.90;5.10;95623.00;;;;5010009;28;20251;-71
2023/12/14 02:58:54;;;;;;;1.33;1.23;;;2.80;99.90;5.20;95627.00;;;;5009021;28;20222;-71
2023/12/14 03:01:42;;;;;;;1.20;1.10;;;2.80;99.90;5.20;95628.00;;;;5008752;28;20649;-70
2023/12/14 03:04:31;;;;;;;2.23;2.03;;;2.90;99.90;5.20;95630.00;;;;5008782;28;20726;-71
2023/12/14 03:07:20;;;;;;;1.40;1.27;;;2.90;99.90;5.20;95631.00;;;;5008430;28;20695;-71
2023/12/14 03:10:10;;;;;;;1.23;1.13;;;3.00;99.90;5.20;95630.00;;;;5002885;28;20222;-70
2023/12/14 03:12:59;;;;;;;1.63;1.50;;;3.00;99.90;5.10;95632.00;;;;5001090;28;20198;-71
2023/12/14 03:15:50;;;;;;;1.13;1.03;;;3.00;99.90;4.90;95637.00;;;;5008616;28;20228;-70
2023/12/14 03:18:38;;;;;;;2.50;2.30;;;3.00;99.90;5.30;95643.00;;;;5007737;28;20610;-70
2023/12/14 03:21:27;;;;;;;1.40;1.30;;;3.00;99.90;5.30;95647.00;;;;5008486;28;20283;-69
2023/12/14 03:24:16;;;;;;;1.20;1.10;;;3.00;99.90;5.40;95652.00;;;;5004023;28;20205;-71
2023/12/14 03:27:06;;;;;;;1.90;1.67;;;3.00;99.90;5.30;95648.00;;;;5008295;28;20230;-70
2023/12/14 03:29:55;;;;;;;1.10;1.00;;;3.00;99.90;5.30;95653.00;;;;5007952;28;20230;-70
2023/12/14 03:32:45;;;;;;;2.50;2.30;;;3.00;99.90;5.00;95657.00;;;;5006910;28;20213;-70
2023/12/14 03:35:34;;;;;;;2.23;2.03;;;3.00;99.90;4.80;95655.00;;;;5007997;28;20206;-70
2023/12/14 03:38:23;;;;;;;0.80;0.80;;;2.90;99.90;4.80;95648.00;;;;5009566;28;20226;-71
2023/12/14 03:41:12;;;;;;;1.67;1.50;;;2.90;99.90;4.90;95653.00;;;;5005976;28;20571;-70
2023/12/14 03:44:01;;;;;;;1.10;1.00;;;2.90;99.90;4.90;95651.00;;;;5002297;28;20202;-71
2023/12/14 03:46:50;;;;;;;1.00;0.90;;;2.80;99.90;4.70;95656.00;;;;5008608;28;20220;-69
2023/12/14 03:49:40;;;;;;;2.37;2.17;;;2.80;99.90;4.30;95664.00;;;;5007186;28;20226;-71
2023/12/14 03:52:31;;;;;;;1.63;1.50;;;2.70;99.90;4.20;95662.00;;;;5000667;28;20214;-71
2023/12/14 03:55:20;;;;;;;1.13;1.03;;;2.60;99.90;4.60;95664.00;;;;5009090;28;20251;-70
2023/12/14 03:58:09;;;;;;;1.57;1.43;;;2.60;99.90;4.60;95671.00;;;;4998720;28;20226;-70
2023/12/14 04:00:58;;;;;;;1.40;1.30;;;2.60;99.90;4.80;95679.00;;;;5006635;28;20209;-71
2023/12/14 04:03:48;;;;;;;1.50;1.40;;;2.70;99.90;4.80;95683.00;;;;4997537;28;20233;-70
2023/12/14 04:06:38;;;;;;;1.13;1.07;;;2.70;99.90;4.80;95682.00;;;;5002948;28;20663;-71
2023/12/14 04:09:27;;;;;;;1.40;1.30;;;2.80;99.90;4.60;95683.00;;;;5003273;28;20233;-69
2023/12/14 04:12:16;;;;;;;1.07;0.97;;;2.80;99.90;4.80;95686.00;;;;5002141;28;20214;-72
2023/12/14 04:15:07;;;;;;;1.40;1.30;;;2.80;99.90;4.70;95688.00;;;;5004359;28;20210;-69
2023/12/14 04:17:56;;;;;;;1.30;1.20;;;2.70;99.90;4.70;95689.00;;;;4988597;28;20671;-70
2023/12/14 04:20:45;;;;;;;1.37;1.27;;;2.80;99.90;4.80;95701.00;;;;5006083;28;20195;-70
2023/12/14 04:23:35;;;;;;;2.67;2.37;;;2.80;99.90;4.80;95700.00;;;;5000373;28;20207;-71
2023/12/14 04:26:24;;;;;;;1.63;1.53;;;2.80;99.90;4.80;95700.00;;;;5005886;28;20209;-70
2023/12/14 04:29:13;;;;;;;1.20;1.10;;;2.80;99.90;4.90;95706.00;;;;5002340;28;20244;-70
2023/12/14 04:32:02;;;;;;;1.00;0.90;;;2.80;99.90;4.80;95711.00;;;;5007412;28;20210;-71
2023/12/14 04:34:51;;;;;;;1.23;1.13;;;2.80;99.90;4.80;95709.00;;;;5011330;28;20292;-70
2023/12/14 04:37:40;;;;;;;2.23;2.03;;;2.80;99.90;4.80;95722.00;;;;5009743;28;20206;-71
2023/12/14 04:40:30;;;;;;;1.37;1.27;;;2.80;99.90;4.80;95722.00;;;;5009927;28;20791;-69
2023/12/14 04:43:19;;;;;;;1.30;1.20;;;2.80;99.90;4.70;95717.00;;;;5011620;28;20220;-69
2023/12/14 04:46:08;;;;;;;1.27;1.17;;;2.80;99.90;4.80;95724.00;;;;5011147;28;20590;-69
2023/12/14 04:48:56;;;;;;;1.30;1.20;;;2.70;99.90;4.70;95728.00;;;;5011828;28;20222;-70
2023/12/14 04:51:46;;;;;;;2.37;2.17;;;2.70;99.90;4.70;95737.00;;;;5013782;28;20238;-70
2023/12/14 04:54:37;;;;;;;2.50;2.30;;;2.70;99.90;4.60;95734.00;;;;5010094;28;20686;-70
2023/12/14 04:57:27;;;;;;;1.37;1.27;;;2.70;99.90;4.70;95737.00;;;;5011175;28;20206;-71
2023/12/14 05:00:17;;;;;;;1.37;1.27;;;2.70;99.90;5.00;95737.00;;;;5006865;28;20209;-70
2023/12/14 05:03:06;;;;;;;1.33;1.23;;;2.70;99.90;5.00;95744.00;;;;5003388;28;20212;-71
2023/12/14 05:05:56;;;;;;;1.30;1.20;;;2.80;99.90;4.90;95746.00;;;;5001895;28;20214;-69
2023/12/14 05:08:45;;;;;;;1.93;1.83;;;2.80;99.90;4.90;95748.00;;;;5010945;28;20232;-70
2023/12/14 05:11:34;;;;;;;2.83;2.53;;;2.80;99.90;4.70;95751.00;;;;5015442;28;20613;-71
2023/12/14 05:14:24;;;;;;;1.70;1.60;;;2.80;99.90;4.60;95759.00;;;;5015842;28;20228;-70
2023/12/14 05:17:13;;;;;;;1.00;0.90;;;2.70;99.90;4.80;95767.00;;;;5016434;28;20221;-70
2023/12/14 05:20:02;;;;;;;1.30;1.20;;;2.70;99.90;4.90;95776.00;;;;5011127;28;20201;-70
2023/12/14 05:22:51;;;;;;;1.70;1.60;;;2.80;99.90;5.10;95779.00;;;;5018453;28;20757;-71
2023/12/14 05:25:40;;;;;;;2.47;2.27;;;2.90;99.90;4.90;95782.00;;;;5009808;28;20253;-71
2023/12/14 05:28:29;;;;;;;0.97;0.87;;;2.90;99.90;4.90;95777.00;;;;5010434;28;20238;-70
2023/12/14 05:31:19;;;;;;;1.90;1.63;;;2.90;99.90;4.90;95785.00;;;;5008542;28;20234;-70
2023/12/14 05:34:08;;;;;;;1.30;1.20;;;2.90;99.90;4.70;95791.00;;;;5010815;28;20572;-70
2023/12/14 05:36:57;;;;;;;1.67;1.57;;;2.80;99.90;4.80;95788.00;;;;5012027;28;20842;-71
2023/12/14 05:39:46;;;;;;;2.97;2.73;;;2.80;99.90;4.90;95789.00;;;;5019212;28;20258;-70
2023/12/14 05:42:35;;;;;;;2.87;2.57;;;2.80;99.90;5.00;95796.00;;;;5008115;28;20590;-71
2023/12/14 05:45:24;;;;;;;1.40;1.30;;;2.80;99.90;5.10;95806.00;;;;5008747;28;20901;-70
2023/12/14 05:48:14;;;;;;;1.60;1.50;;;2.90;99.90;5.00;95800.00;;;;5010410;28;20941;-70
2023/12/14 05:51:03;;;;;;;1.77;1.50;;;2.90;99.90;4.90;95805.00;;;;5008268;28;20244;-71
2023/12/14 05:53:52;;;;;;;1.10;1.00;;;2.90;99.90;5.00;95805.00;;;;5008820;28;20594;-70
2023/12/14 05:56:41;;;;;;;2.10;1.90;;;2.90;99.90;4.70;95815.00;;;;5010289;28;20202;-70
2023/12/14 05:59:30;;;;;;;1.57;1.47;;;2.80;99.90;4.70;95820.00;;;;5016557;28;20407;-70
2023/12/14 06:02:19;;;;;;;1.27;1.17;;;2.80;99.90;4.90;95818.00;;;;5010201;28;20213;-71
2023/12/14 06:05:12;;;;;;;1.40;1.30;;;2.80;99.90;5.20;95826.00;;;;5014536;28;20202;-70
2023/12/14 06:08:03;;;;;;;1.43;1.33;;;2.90;99.90;4.80;95832.00;;;;5011575;28;20707;-70
2023/12/14 06:10:52;;;;;;;1.10;1.00;;;2.90;99.90;4.60;95824.00;;;;5009539;28;20214;-71
2023/12/14 06:13:40;;;;;;;1.87;1.73;;;4.00;99.90;4.70;95825.00;;;;5016675;28;20773;-69
2023/12/14 06:16:29;;;;;;;1.30;1.20;;;2.80;99.90;4.40;95830.00;;;;5009106;28;20209;-70
2023/12/14 06:19:18;;;;;;;1.23;1.13;;;2.70;99.90;4.20;95835.00;;;;5017727;28;20225;-70
2023/12/14 06:22:09;;;;;;;1.57;1.47;;;2.60;99.90;4.10;95834.00;;;;4999119;28;20583;-71
2023/12/14 06:24:58;;;;;;;1.50;1.40;;;2.50;99.90;4.30;95849.00;;;;5006088;28;20213;-71
2023/12/14 06:27:46;;;;;;;2.07;1.87;;;2.70;99.90;4.30;95843.00;;;;5001981;28;20218;-69
2023/12/14 06:30:35;;;;;;;2.20;2.10;;;2.50;99.90;4.30;95845.00;;;;5058667;23;20244;-66
2023/12/14 06:33:24;;;;;;;0.90;0.90;;;2.50;99.90;4.30;95859.00;;;;5055969;28;20204;-66
2023/12/14 06:36:13;;;;;;;1.17;1.17;;;2.50;99.90;4.40;95861.00;;;;5043636;28;20204;-65
2023/12/14 06:39:04;;;;;;;1.30;1.20;;;2.50;99.90;4.10;95856.00;;;;5044657;28;20233;-65
2023/12/14 06:41:54;;;;;;;1.00;1.00;;;2.50;99.90;3.80;95862.00;;;;5052172;28;20197;-66
2023/12/14 06:44:42;;;;;;;1.70;1.60;;;2.50;99.90;4.20;95868.00;;;;5057437;28;20204;-66
2023/12/14 06:47:31;;;;;;;1.03;1.00;;;2.40;99.90;4.50;95873.00;;;;5038354;28;20221;-66
2023/12/14 06:50:20;;;;;;;0.90;0.90;;;2.50;99.90;4.40;95882.00;;;;5044377;28;20227;-66
2023/12/14 06:53:09;;;;;;;0.90;0.90;;;2.50;99.90;4.70;95890.00;;;;5038074;28;20280;-66
2023/12/14 06:55:59;;;;;;;1.10;1.10;;;2.60;99.90;4.90;95898.00;;;;5036409;28;20505;-66
2023/12/14 06:58:49;;;;;;;1.83;1.73;;;2.60;99.90;5.00;95893.00;;;;5040518;28;20236;-65
2023/12/14 07:01:38;;;;;;;1.93;1.83;;;2.70;99.90;5.00;95896.00;;;;5036250;28;20335;-66
2023/12/14 07:04:27;;;;;;;1.33;1.23;;;2.70;99.90;4.80;95919.00;;;;5041889;28;20201;-65
2023/12/14 07:07:17;;;;;;;1.20;1.20;;;2.80;99.90;4.70;95906.00;;;;5040699;28;20212;-65
2023/12/14 07:10:07;;;;;;;1.03;1.03;;;2.70;99.90;4.90;95914.00;;;;5034973;28;21077;-65
2023/12/14 07:12:57;;;;;;;1.57;1.47;;;2.80;99.90;5.20;95920.00;;;;5035255;28;20220;-65
2023/12/14 07:15:46;;;;;;;1.73;1.63;;;2.80;99.90;5.20;95916.00;;;;5043130;28;20201;-65
2023/12/14 07:18:35;;;;;;;2.00;1.90;;;2.80;99.90;5.20;95928.00;;;;5040943;28;20204;-65
2023/12/14 07:21:24;;;;;;;1.53;1.43;;;2.80;99.90;5.00;95928.00;;;;5042194;28;20224;-65
2023/12/14 07:24:13;;;;;;;1.00;1.00;;;2.90;99.90;4.70;95931.00;;;;5040883;28;20851;-65
2023/12/14 07:27:02;;;;;;;1.27;1.23;;;2.90;99.90;4.80;95922.00;;;;5045238;28;20256;-65
2023/12/14 07:29:53;;;;;;;0.90;0.90;;;2.90;99.90;4.70;95931.00;;;;5043511;28;20807;-66
2023/12/14 07:32:41;;;;;;;2.13;2.03;;;2.90;99.90;4.90;95943.00;;;;5042885;28;20224;-66
2023/12/14 07:35:30;;;;;;;1.00;1.00;;;2.90;99.90;5.10;95946.00;;;;5042966;28;20213;-65
2023/12/14 07:38:19;;;;;;;1.80;1.70;;;2.90;99.90;4.90;95947.00;;;;5034516;28;20209;-65
2023/12/14 07:41:08;;;;;;;0.90;0.90;;;3.00;99.90;5.20;95948.00;;;;5037909;28;20215;-66
2023/12/14 07:43:58;;;;;;;1.00;1.00;;;3.00;99.90;5.30;95948.00;;;;5041608;28;20208;-66
2023/12/14 07:46:48;;;;;;;1.20;1.20;;;3.00;99.90;4.90;95949.00;;;;5046731;28;20208;-66
2023/12/14 07:49:37;;;;;;;2.27;2.17;;;3.00;99.90;4.60;95955.00;;;;5044159;28;20224;-65
2023/12/14 07:52:26;;;;;;;1.10;1.10;;;2.90;99.90;5.00;95950.00;;;;5044030;28;20311;-66
2023/12/14 07:55:15;;;;;;;1.07;1.03;;;2.90;99.90;5.20;95974.00;;;;5046680;28;20204;-65
2023/12/14 07:58:04;;;;;;;1.10;1.10;;;3.00;99.90;5.20;95971.00;;;;5046041;28;20623;-65
2023/12/14 08:00:54;;;;;;;1.27;1.20;;;3.00;99.90;5.00;95978.00;;;;5043166;28;20201;-65
2023/12/14 08:03:44;;;;;;;1.90;1.80;;;3.00;99.90;5.10;95978.00;;;;5037635;28;20197;-65
2023/12/14 08:06:33;;;;;;;1.57;1.47;;;3.00;99.90;5.10;95979.00;;;;5049843;28;20275;-65
2023/12/14 08:09:22;;;;;;;0.93;0.93;;;3.10;99.90;5.20;95987.00;;;;5050681;28;20309;-65
2023/12/14 08:12:10;;;;;;;0.90;0.90;;;3.10;99.90;5.80;95992.00;;;;5048273;28;20220;-65
2023/12/14 08:14:59;;;;;;;0.93;0.93;;;3.20;99.90;5.90;95998.00;;;;5050605;28;20201;-66
2023/12/14 08:17:51;;;;;;;1.47;1.40;;;3.30;99.90;5.40;95996.00;;;;5045667;28;20208;-66
2023/12/14 08:20:41;;;;;;;1.40;1.30;;;3.30;99.90;5.50;95996.00;;;;5044310;28;20221;-65
2023/12/14 08:23:30;;;;;;;1.00;1.00;;;3.40;99.90;5.80;96005.00;;;;5047424;28;20205;-65
2023/12/14 08:26:19;;;;;;;1.77;1.67;;;3.50;99.90;5.70;96006.00;;;;5044904;28;20213;-66
2023/12/14 08:29:07;;;;;;;0.87;0.87;;;3.50;99.90;5.70;96007.00;;;;5044473;28;20236;-65
2023/12/14 08:31:57;;;;;;;1.60;1.50;;;3.60;99.90;5.70;96005.00;;;;5049519;28;20239;-66
2023/12/14 08:34:46;;;;;;;1.67;1.57;;;3.60;99.90;5.60;96016.00;;;;5041401;28;20209;-65
2023/12/14 08:37:36;;;;;;;1.60;1.53;;;3.60;99.90;5.70;96018.00;;;;5048788;28;20226;-65
2023/12/14 08:40:25;;;;;;;1.60;1.50;;;3.60;99.90;5.50;96025.00;;;;5048870;28;20224;-66
2023/12/14 08:43:14;;;;;;;1.00;1.00;;;4.70;99.90;5.50;96026.00;;;;5042794;28;20212;-66
2023/12/14 08:46:03;;;;;;;0.90;0.90;;;3.70;99.90;5.20;96031.00;;;;5044340;28;20209;-66
2023/12/14 08:48:52;;;;;;;1.10;1.10;;;3.60;99.90;5.70;96030.00;;;;5043038;28;20228;-66
2023/12/14 08:51:41;;;;;;;1.40;1.30;;;3.60;99.90;6.00;96036.00;;;;5043435;28;20213;-66
2023/12/14 08:54:32;;;;;;;1.10;1.10;;;3.70;99.90;6.50;96036.00;;;;5044269;28;20204;-66
2023/12/14 08:57:21;;;;;;;1.00;1.00;;;3.90;99.90;6.70;96043.00;;;;5043051;28;20716;-66
2023/12/14 09:00:12;;;;;;;0.80;0.80;;;4.10;99.90;6.70;96043.00;;;;5048895;28;20224;-65
2023/12/14 09:03:00;;;;;;;1.13;1.10;;;4.20;99.90;6.50;96058.00;;;;5048804;28;20197;-65
2023/12/14 09:05:49;;;;;;;1.43;1.33;;;4.20;99.90;6.40;96047.00;;;;5049660;28;20219;-66
2023/12/14 09:08:39;;;;;;;1.80;1.70;;;4.30;99.90;6.60;96061.00;;;;5055021;28;20201;-66
2023/12/14 09:11:29;;;;;;;1.67;1.57;;;4.30;99.90;6.70;96067.00;;;;5048127;28;20204;-66
2023/12/14 09:14:18;;;;;;;1.20;1.10;;;4.40;99.90;6.80;96063.00;;;;5044437;28;20208;-66
2023/12/14 09:17:07;;;;;;;0.90;0.90;;;4.50;99.90;7.00;96059.00;;;;5046193;28;20209;-66
2023/12/14 09:19:56;;;;;;;1.50;1.40;;;4.60;99.90;7.30;96067.00;;;;5044000;28;20247;-65
2023/12/14 09:22:45;;;;;;;2.50;2.30;;;4.80;99.90;7.10;96065.00;;;;5056742;28;20206;-65
2023/12/14 09:25:34;;;;;;;1.60;1.47;;;4.90;99.90;7.10;96059.00;;;;5051397;28;20200;-66
2023/12/14 09:28:24;;;;;;;0.83;0.83;;;5.00;99.90;7.30;96071.00;;;;5049263;28;20204;-66
2023/12/14 09:31:13;;;;;;;1.60;1.50;;;5.10;99.90;7.60;96067.00;;;;5049419;28;20284;-65
2023/12/14 09:34:03;;;;;;;1.43;1.33;;;5.20;99.90;7.80;96074.00;;;;5041286;28;20229;-65
2023/12/14 09:36:52;;;;;;;1.20;1.10;;;5.30;99.90;8.00;96077.00;;;;5050643;28;20419;-65
2023/12/14 09:39:42;;;;;;;2.50;2.30;;;5.40;99.90;8.50;96077.00;;;;5052444;28;20228;-65
2023/12/14 09:42:39;;;;;;;1.10;1.07;;;5.60;99.90;8.70;96088.00;;;;5048186;28;20586;-65
2023/12/14 09:45:31;;;;;;;1.33;1.23;;;5.80;99.90;8.70;96096.00;;;;5043888;28;20216;-65
2023/12/14 09:48:21;;;;;;;0.93;0.93;;;6.00;99.90;8.70;96091.00;;;;5058672;28;20203;-65
2023/12/14 09:51:11;;;;;;;1.00;1.00;;;6.10;99.90;8.80;96098.00;;;;5048285;28;20593;-65
2023/12/14 09:54:00;;;;;;;1.40;1.30;;;6.20;99.90;9.30;96102.00;;;;5042911;28;20232;-65
2023/12/14 09:56:50;;;;;;;1.00;1.00;;;6.40;99.90;9.30;96108.00;;;;5045461;28;20706;-65
2023/12/14 09:59:39;;;;;;;3.13;2.83;;;6.50;99.90;8.80;96100.00;;;;5040560;28;20225;-64
2023/12/14 10:02:29;;;;;;;1.10;1.00;;;6.50;99.90;8.40;96105.00;;;;5043338;28;20201;-65
2023/12/14 10:05:18;;;;;;;1.00;1.00;;;6.50;99.90;8.30;96102.00;;;;5048310;28;20207;-65
2023/12/14 10:08:07;;;;;;;0.90;0.90;;;6.40;99.90;8.40;96105.00;;;;5040979;28;20597;-65
2023/12/14 10:10:56;;;;;;;1.30;1.20;;;6.40;99.90;8.40;96107.00;;;;5046451;28;20211;-65
2023/12/14 10:13:45;;;;;;;1.97;1.87;;;6.30;99.90;8.60;96108.00;;;;5037294;28;20217;-65
2023/12/14 10:16:34;;;;;;;1.23;1.13;;;6.30;99.90;8.90;96119.00;;;;5039640;28;20709;-65
2023/12/14 10:19:25;;;;;;;0.90;0.90;;;6.40;99.90;8.60;96108.00;;;;5050860;28;20231;-64
2023/12/14 10:22:17;;;;;;;0.97;0.93;;;6.40;99.90;8.60;96115.00;;;;5048073;28;20196;-65
2023/12/14 10:25:09;;;;;;;1.30;1.20;;;6.40;99.90;8.60;96116.00;;;;5054531;28;20204;-65
2023/12/14 10:27:59;;;;;;;1.07;1.07;;;6.40;99.90;8.10;96103.00;;;;5047910;28;20208;-65
2023/12/14 10:30:48;;;;;;;2.60;2.40;;;6.30;99.90;8.00;96105.00;;;;5055982;28;20254;-65
2023/12/14 10:33:38;;;;;;;2.27;2.07;;;6.20;99.90;8.40;96117.00;;;;5046045;28;20690;-64
2023/12/14 10:36:29;;;;;;;1.50;1.40;;;6.30;99.90;8.80;96118.00;;;;5056595;28;20238;-65
2023/12/14 10:39:19;;;;;;;1.00;1.00;;;6.50;99.90;8.80;96113.00;;;;5043754;28;20698;-65
2023/12/14 10:42:10;;;;;;;1.30;1.20;;;6.60;99.90;9.20;96118.00;;;;5042656;28;20605;-65
2023/12/14 10:45:04;;;;;;;1.20;1.10;;;6.80;99.90;9.40;96118.00;;;;5041344;28;20210;-65
2023/12/14 10:47:54;;;;;;;1.30;1.20;;;7.10;99.90;9.10;96120.00;;;;5036844;28;20213;-64
2023/12/14 10:50:44;;;;;;;2.33;2.13;;;7.30;99.90;9.20;96118.00;;;;5042764;28;20223;-64
2023/12/14 10:53:35;;;;;;;1.17;1.07;;;7.40;99.90;9.60;96128.00;;;;5042924;28;20254;-65
2023/12/14 10:56:24;;;;;;;1.83;1.73;;;7.50;99.90;9.40;96137.00;;;;5041895;28;20200;-65
2023/12/14 10:59:17;;;;;;;1.17;1.07;;;7.60;99.90;9.50;96140.00;;;;5043938;28;20216;-65
2023/12/14 11:02:11;;;;;;;1.60;1.50;;;7.60;99.90;9.60;96145.00;;;;5042864;28;20809;-65
2023/12/14 11:05:05;;;;;;;1.40;1.30;;;7.50;99.90;9.40;96143.00;;;;5043864;28;20233;-65
2023/12/14 11:07:57;;;;;;;1.53;1.43;;;7.50;99.90;9.50;96156.00;;;;5040314;28;20203;-65
2023/12/14 11:10:56;;;;;;;2.73;2.53;;;7.40;99.90;9.30;96155.00;;;;5042651;28;20732;-65
2023/12/14 11:13:45;;;;;;;1.73;1.63;;;7.50;99.90;9.50;96151.00;;;;5045197;28;20216;-65
2023/12/14 11:16:34;;;;;;;1.33;1.23;;;7.50;99.90;9.70;96152.00;;;;5041974;28;20201;-65
2023/12/14 11:19:29;;;;;;;1.20;1.10;;;7.50;99.90;9.70;96158.00;;;;5042905;28;20228;-65
2023/12/14 11:22:29;;;;;;;1.20;1.10;;;7.50;99.90;9.80;96152.00;;;;5034571;28;20573;-64
2023/12/14 11:25:18;;;;;;;0.90;0.90;;;7.50;99.90;9.90;96163.00;;;;5040261;28;20201;-64
2023/12/14 11:28:13;;;;;;;1.03;1.00;;;7.50;99.90;9.30;96156.00;;;;5043724;28;20200;-65
2023/12/14 11:31:06;;;;;;;1.30;1.20;;;7.50;99.90;8.50;96149.00;;;;5043093;28;20200;-65
2023/12/14 11:33:56;;;;;;;1.27;1.17;;;7.30;99.90;8.80;96153.00;;;;5045060;28;20240;-65
2023/12/14 11:36:45;;;;;;;2.40;2.20;;;7.10;99.90;9.20;96156.00;;;;5046462;28;20205;-65
2023/12/14 11:39:34;;;;;;;2.47;2.27;;;7.10;99.90;9.10;96151.00;;;;5040516;28;20612;-65
2023/12/14 11:42:23;;;;;;;1.10;1.10;;;7.10;99.90;9.30;96161.00;;;;5042301;28;20201;-65
2023/12/14 11:45:14;;;;;;;0.70;0.70;;;7.20;99.90;8.90;96152.00;;;;5047579;28;20207;-66
2023/12/14 11:48:05;;;;;;;1.13;1.10;;;7.20;99.90;8.90;96144.00;;;;5041249;28;20208;-65
2023/12/14 11:50:54;;;;;;;1.27;1.17;;;7.10;99.90;8.90;96147.00;;;;5048045;28;20211;-65
2023/12/14 11:53:46;;;;;;;2.70;2.50;;;7.10;99.90;8.80;96148.00;;;;5041071;28;20232;-65
2023/12/14 11:56:37;;;;;;;1.20;1.10;;;7.10;99.90;9.20;96157.00;;;;5040319;28;20220;-65
2023/12/14 11:59:28;;;;;;;1.20;1.10;;;7.10;99.90;9.30;96151.00;;;;5036029;28;20217;-65
2023/12/14 12:02:25;;;;;;;1.40;1.30;;;7.10;99.90;9.00;96147.00;;;;5042744;28;20208;-65
2023/12/14 12:05:18;;;;;;;0.80;0.80;;;7.20;99.90;9.60;96162.00;;;;5046420;28;20197;-64
2023/12/14 12:08:08;;;;;;;1.17;1.10;;;7.20;99.90;9.20;96164.00;;;;5044744;28;20251;-65
2023/12/14 12:10:58;;;;;;;0.87;0.87;;;7.20;99.90;9.10;96164.00;;;;5052325;28;20203;-65
2023/12/14 12:13:52;;;;;;;2.17;2.07;;;7.20;99.90;9.70;96161.00;;;;5046213;28;20224;-65
2023/12/14 12:16:41;;;;;;;2.70;2.50;;;7.30;99.90;9.80;96167.00;;;;5037297;28;20201;-65
2023/12/14 12:19:32;;;;;;;0.93;0.93;;;7.40;99.90;9.30;96156.00;;;;5039384;28;20244;-65
2023/12/14 12:22:21;;;;;;;1.37;1.27;;;7.40;99.90;9.50;96160.00;;;;5045844;28;20211;-65
2023/12/14 12:25:10;;;;;;;0.90;0.90;;;7.40;99.90;9.30;96161.00;;;;5052603;28;20583;-65
2023/12/14 12:28:00;;;;;;;0.90;0.90;;;7.40;99.90;9.40;96162.00;;;;5035047;28;20207;-64
2023/12/14 12:30:49;;;;;;;2.60;2.40;;;7.40;99.90;10.10;96165.00;;;;4989717;23;1146041;-70
2023/12/14 12:33:38;;;;;;;2.33;1.90;;;7.50;99.90;9.90;96166.00;;;;5002150;28;20226;-70
2023/12/14 12:36:28;;;;;;;2.30;2.07;;;7.50;99.90;10.30;96174.00;;;;4996537;28;20198;-69
2023/12/14 12:39:17;;;;;;;1.27;1.00;;;7.60;99.90;9.70;96176.00;;;;5002273;28;20203;-68
2023/12/14 12:42:07;;;;;;;9.90;3.92;;;7.70;99.90;9.60;96158.00;;;;4998547;28;20509;-69
2023/12/14 12:44:55;;;;;;;7.17;3.10;;;7.60;99.90;10.60;96174.00;;;;4998453;28;20203;-69
2023/12/14 12:47:44;;;;;;;9.40;4.30;;;7.80;99.90;10.80;96192.00;;;;4997501;28;20585;-69
2023/12/14 12:50:33;;;;;;;4.63;2.07;;;8.00;99.90;11.10;96180.00;;;;5005558;28;20248;-69